Time;durP1;ratioP1;P1;durP2;ratioP2;P2;SDS_P1;SDS_P2;PMS_P1;PMS_P2;Temp;Humidity;BMP_temperature;BMP_pressure;BME280_temperature;BME280_humidity;BME280_pressure;Samples;Min_cycle;Max_cycle;Signal;HPM_P1;HPM_P2
2021/08/29 00:02:11;;;;;;;7.03;3.72;;;16.70;99.90;;;;;;4984586;28;20035;-77
2021/08/29 00:04:37;;;;;;;5.43;3.47;;;16.70;99.90;;;;;;4986525;28;20061;-76
2021/08/29 00:07:02;;;;;;;6.20;4.20;;;16.70;99.90;;;;;;4986999;28;20053;-77
2021/08/29 00:09:28;;;;;;;7.57;3.88;;;16.70;99.90;;;;;;4987919;28;20029;-76
2021/08/29 00:11:54;;;;;;;6.47;4.07;;;16.70;99.90;;;;;;4984405;28;20519;-76
2021/08/29 00:14:20;;;;;;;6.13;4.10;;;16.70;99.90;;;;;;4987825;28;20034;-77
2021/08/29 00:16:45;;;;;;;5.43;3.97;;;16.70;99.90;;;;;;4984661;28;20041;-77
2021/08/29 00:19:10;;;;;;;6.05;3.90;;;16.70;99.90;;;;;;4987804;28;20039;-76
2021/08/29 00:21:36;;;;;;;4.78;3.38;;;16.70;99.90;;;;;;4988277;28;20084;-76
2021/08/29 00:24:05;;;;;;;6.68;3.90;;;16.70;99.90;;;;;;4985013;28;20388;-76
2021/08/29 00:26:30;;;;;;;15.52;3.78;;;16.70;99.90;;;;;;4986768;28;20607;-77
2021/08/29 00:28:59;;;;;;;5.70;3.88;;;16.80;99.90;;;;;;4987072;28;20042;-76
2021/08/29 00:31:24;;;;;;;6.30;4.00;;;16.80;99.90;;;;;;4986244;28;20053;-76
2021/08/29 00:33:50;;;;;;;6.50;4.10;;;16.70;99.90;;;;;;4979975;28;20042;-76
2021/08/29 00:36:15;;;;;;;7.00;3.40;;;16.80;99.90;;;;;;4985344;28;20038;-76
2021/08/29 00:38:41;;;;;;;6.10;3.53;;;16.70;99.90;;;;;;4987835;28;20030;-76
2021/08/29 00:41:08;;;;;;;5.20;3.67;;;16.70;99.90;;;;;;4981595;28;20031;-76
2021/08/29 00:43:34;;;;;;;4.88;2.92;;;16.70;99.90;;;;;;4981035;28;20519;-76
2021/08/29 00:46:00;;;;;;;4.72;3.00;;;16.70;99.90;;;;;;4982265;28;20030;-76
2021/08/29 00:48:25;;;;;;;3.72;2.75;;;16.70;99.90;;;;;;4985333;28;20143;-76
2021/08/29 00:50:51;;;;;;;4.05;2.95;;;16.70;99.90;;;;;;4987053;28;20266;-76
2021/08/29 00:53:18;;;;;;;4.00;2.80;;;16.70;99.90;;;;;;4985845;28;20026;-76
2021/08/29 00:55:44;;;;;;;4.30;3.08;;;16.70;99.90;;;;;;4986339;28;20468;-77
2021/08/29 00:58:10;;;;;;;4.15;3.00;;;16.70;99.90;;;;;;4983563;28;20042;-76
2021/08/29 01:00:41;;;;;;;5.28;3.47;;;16.70;99.90;;;;;;4986850;28;20034;-76
2021/08/29 01:03:15;;;;;;;5.72;3.33;;;16.70;99.90;;;;;;4989749;28;20489;-76
2021/08/29 01:05:48;;;;;;;4.97;3.20;;;16.60;99.90;;;;;;4989469;28;20057;-76
2021/08/29 01:08:17;;;;;;;5.20;3.28;;;16.60;99.90;;;;;;4986817;28;20045;-76
2021/08/29 01:10:57;;;;;;;5.75;3.08;;;16.60;99.90;;;;;;4989655;28;20117;-76
2021/08/29 01:13:40;;;;;;;6.43;3.00;;;16.60;99.90;;;;;;4990472;28;20027;-76
2021/08/29 01:16:08;;;;;;;5.18;2.90;;;16.60;99.90;;;;;;4989181;28;20635;-76
2021/08/29 01:18:34;;;;;;;4.63;2.97;;;16.60;99.90;;;;;;4990222;28;20030;-76
2021/08/29 01:21:08;;;;;;;4.40;2.83;;;16.70;99.90;;;;;;4989135;28;20443;-77
2021/08/29 01:23:46;;;;;;;4.28;3.08;;;16.70;99.90;;;;;;4986352;28;20583;-76
2021/08/29 01:26:18;;;;;;;9.07;3.10;;;16.60;99.90;;;;;;4989327;28;20070;-76
2021/08/29 01:28:52;;;;;;;3.53;2.63;;;16.60;99.90;;;;;;4987623;28;20057;-76
2021/08/29 01:31:18;;;;;;;7.35;3.45;;;16.60;99.90;;;;;;4988288;28;20057;-76
2021/08/29 01:33:45;;;;;;;7.90;3.42;;;16.70;99.90;;;;;;4987212;28;20217;-77
2021/08/29 01:36:13;;;;;;;3.97;2.53;;;16.60;99.90;;;;;;4986403;28;20026;-76
2021/08/29 01:38:40;;;;;;;2.97;2.63;;;16.60;99.90;;;;;;4988187;28;20113;-76
2021/08/29 01:41:05;;;;;;;4.25;2.80;;;16.60;99.90;;;;;;4983830;28;20065;-76
2021/08/29 01:43:31;;;;;;;4.05;2.60;;;16.60;99.90;;;;;;4978571;28;20054;-76
2021/08/29 01:45:58;;;;;;;3.30;2.75;;;16.60;99.90;;;;;;4989137;28;20081;-76
2021/08/29 01:48:24;;;;;;;3.63;2.97;;;16.60;99.90;;;;;;4989221;28;20046;-76
2021/08/29 01:50:49;;;;;;;5.70;2.78;;;16.60;99.90;;;;;;4989367;28;20110;-76
2021/08/29 01:53:15;;;;;;;3.88;2.65;;;16.60;99.90;;;;;;4988840;28;20467;-76
2021/08/29 01:55:41;;;;;;;4.15;2.95;;;16.60;99.90;;;;;;4980867;28;20030;-77
2021/08/29 01:58:07;;;;;;;4.15;2.50;;;16.60;99.90;;;;;;4984529;28;20052;-76
2021/08/29 02:00:37;;;;;;;5.45;2.47;;;16.50;99.90;;;;;;4985321;28;20026;-76
2021/08/29 02:03:03;;;;;;;2.78;2.40;;;16.50;99.90;;;;;;4989129;28;20031;-77
2021/08/29 02:05:30;;;;;;;2.88;2.58;;;16.50;99.90;;;;;;4987252;28;20023;-77
2021/08/29 02:07:59;;;;;;;4.05;2.10;;;16.50;99.90;;;;;;4989625;28;20038;-78
2021/08/29 02:10:26;;;;;;;3.00;2.30;;;16.50;99.90;;;;;;4985749;28;20133;-77
2021/08/29 02:13:04;;;;;;;2.70;2.15;;;16.50;99.90;;;;;;4986378;28;20050;-78
2021/08/29 02:15:33;;;;;;;2.60;2.00;;;16.50;99.90;;;;;;4987671;28;20054;-77
2021/08/29 02:18:02;;;;;;;2.70;1.90;;;16.50;99.90;;;;;;4985227;28;20489;-77
2021/08/29 02:20:30;;;;;;;3.22;2.20;;;16.50;99.90;;;;;;4988681;28;20018;-77
2021/08/29 02:22:57;;;;;;;4.72;1.75;;;16.50;99.90;;;;;;4988392;28;20260;-77
2021/08/29 02:25:22;;;;;;;2.30;2.05;;;16.50;99.90;;;;;;4983177;28;20560;-77
2021/08/29 02:27:48;;;;;;;12.65;1.90;;;16.50;99.90;;;;;;4990784;28;20041;-77
2021/08/29 02:30:15;;;;;;;1.98;1.65;;;16.50;99.90;;;;;;4988837;28;20511;-77
2021/08/29 02:32:42;;;;;;;2.10;1.75;;;16.50;99.90;;;;;;4986903;28;20188;-77
2021/08/29 02:35:09;;;;;;;2.88;2.08;;;16.50;99.90;;;;;;4987661;28;20499;-77
2021/08/29 02:37:36;;;;;;;8.07;2.00;;;16.50;99.90;;;;;;4988274;28;20072;-77
2021/08/29 02:40:04;;;;;;;2.63;1.83;;;16.50;99.90;;;;;;4988638;28;20045;-77
2021/08/29 02:42:30;;;;;;;1.92;1.40;;;16.50;99.90;;;;;;4986662;28;20033;-77
2021/08/29 02:44:58;;;;;;;1.27;1.17;;;16.50;99.90;;;;;;4987720;28;20049;-77
2021/08/29 02:47:23;;;;;;;1.55;1.40;;;16.40;99.90;;;;;;4986995;28;20141;-77
2021/08/29 02:49:51;;;;;;;1.52;1.02;;;16.40;99.90;;;;;;4988347;28;20541;-78
2021/08/29 02:52:18;;;;;;;4.60;1.33;;;16.40;99.90;;;;;;4984632;28;20095;-77
2021/08/29 02:54:45;;;;;;;1.40;1.10;;;16.40;99.90;;;;;;4987526;28;20436;-77
2021/08/29 02:57:12;;;;;;;1.10;1.00;;;16.40;99.90;;;;;;4986677;28;20119;-77
2021/08/29 02:59:38;;;;;;;1.30;1.20;;;16.40;99.90;;;;;;4979089;28;20053;-78
2021/08/29 03:02:12;;;;;;;1.58;1.15;;;16.40;99.90;;;;;;4981299;28;20247;-77
2021/08/29 03:04:38;;;;;;;0.90;0.90;;;16.40;99.90;;;;;;4987232;28;20400;-78
2021/08/29 03:07:04;;;;;;;1.98;1.52;;;16.40;99.90;;;;;;4987366;28;20583;-77
2021/08/29 03:09:35;;;;;;;1.63;1.17;;;16.40;99.90;;;;;;4986688;28;20033;-77
2021/08/29 03:12:05;;;;;;;1.27;1.17;;;16.40;99.90;;;;;;4989606;28;20484;-77
2021/08/29 03:14:33;;;;;;;1.20;1.00;;;16.40;99.90;;;;;;4983815;28;20096;-77
2021/08/29 03:16:59;;;;;;;1.85;1.20;;;16.40;99.90;;;;;;4988506;28;20545;-77
2021/08/29 03:19:25;;;;;;;1.05;0.98;;;16.40;99.90;;;;;;4987660;28;20046;-77
2021/08/29 03:21:51;;;;;;;1.23;0.98;;;16.40;99.90;;;;;;4991648;28;20122;-77
2021/08/29 03:24:17;;;;;;;1.00;0.82;;;16.30;99.90;;;;;;4986601;28;20113;-77
2021/08/29 03:26:43;;;;;;;1.50;1.15;;;16.40;99.90;;;;;;4979784;28;20027;-77
2021/08/29 03:29:09;;;;;;;0.80;0.80;;;16.30;99.90;;;;;;4988366;28;20027;-78
2021/08/29 03:31:35;;;;;;;0.60;0.60;;;16.30;99.90;;;;;;4988649;28;20076;-77
2021/08/29 03:34:04;;;;;;;2.30;1.13;;;16.40;99.90;;;;;;4988974;28;20473;-77
2021/08/29 03:36:31;;;;;;;1.08;0.98;;;16.30;99.90;;;;;;4985980;28;20516;-77
2021/08/29 03:38:59;;;;;;;1.10;1.00;;;16.30;99.90;;;;;;4988973;28;20374;-78
2021/08/29 03:41:27;;;;;;;0.40;0.40;;;16.30;99.90;;;;;;4987205;28;20124;-77
2021/08/29 03:43:53;;;;;;;0.88;0.77;;;16.30;99.90;;;;;;4985449;28;20037;-77
2021/08/29 03:46:19;;;;;;;0.75;0.63;;;16.20;99.90;;;;;;4976987;28;20035;-77
2021/08/29 03:48:44;;;;;;;0.68;0.68;;;16.30;99.90;;;;;;4984269;28;20456;-77
2021/08/29 03:51:13;;;;;;;3.80;1.02;;;16.20;99.90;;;;;;4986217;28;20080;-77
2021/08/29 03:53:39;;;;;;;1.25;0.82;;;16.20;99.90;;;;;;4987128;28;20041;-77
2021/08/29 03:56:06;;;;;;;1.02;0.90;;;16.20;99.90;;;;;;4986775;28;20038;-77
2021/08/29 03:58:34;;;;;;;0.82;0.63;;;16.20;99.90;;;;;;4984431;28;20042;-77
2021/08/29 04:01:00;;;;;;;1.30;1.10;;;16.20;99.90;;;;;;4985827;28;20026;-77
2021/08/29 04:03:25;;;;;;;0.70;0.70;;;16.20;99.90;;;;;;4975759;28;20046;-77
2021/08/29 04:05:52;;;;;;;0.70;0.70;;;16.10;99.90;;;;;;4986768;28;20441;-77
2021/08/29 04:08:24;;;;;;;0.80;0.80;;;16.10;99.90;;;;;;4987009;28;20045;-77
2021/08/29 04:10:51;;;;;;;0.63;0.63;;;16.10;99.90;;;;;;4986397;28;20108;-77
2021/08/29 04:13:17;;;;;;;0.80;0.75;;;16.10;99.90;;;;;;4987070;28;20121;-77
2021/08/29 04:15:44;;;;;;;0.63;0.63;;;16.10;99.90;;;;;;4984181;28;20210;-77
2021/08/29 04:18:10;;;;;;;1.50;0.80;;;16.10;99.90;;;;;;4987583;28;20030;-77
2021/08/29 04:20:36;;;;;;;0.75;0.75;;;16.10;99.90;;;;;;4983382;28;20085;-77
2021/08/29 04:23:01;;;;;;;0.60;0.60;;;16.10;99.90;;;;;;4987536;28;20057;-77
2021/08/29 04:25:28;;;;;;;4.65;0.80;;;16.10;99.90;;;;;;4981551;28;20508;-77
2021/08/29 04:27:54;;;;;;;0.90;0.70;;;16.10;99.90;;;;;;4982803;28;20030;-77
2021/08/29 04:30:20;;;;;;;0.50;0.50;;;16.10;99.90;;;;;;4986702;28;20030;-77
2021/08/29 04:32:49;;;;;;;1.55;0.60;;;16.10;99.90;;;;;;4983357;28;20105;-77
2021/08/29 04:35:14;;;;;;;0.63;0.60;;;16.10;99.90;;;;;;4987628;28;20501;-78
2021/08/29 04:37:40;;;;;;;1.45;0.70;;;16.20;99.90;;;;;;4990935;28;20073;-77
2021/08/29 04:40:06;;;;;;;0.73;0.60;;;16.20;99.90;;;;;;4989970;28;20110;-77
2021/08/29 04:42:32;;;;;;;0.75;0.63;;;16.20;99.90;;;;;;4991300;28;20027;-77
2021/08/29 04:44:57;;;;;;;0.70;0.70;;;16.20;99.90;;;;;;4992469;28;20081;-77
2021/08/29 04:47:22;;;;;;;0.75;0.63;;;16.30;99.90;;;;;;4989582;28;20535;-77
2021/08/29 04:49:48;;;;;;;0.98;0.82;;;16.30;99.90;;;;;;4989970;28;20084;-78
2021/08/29 04:52:13;;;;;;;0.80;0.80;;;16.20;99.90;;;;;;4985620;28;20031;-78
2021/08/29 04:54:39;;;;;;;1.02;0.95;;;16.30;99.90;;;;;;4989799;28;20183;-78
2021/08/29 04:57:04;;;;;;;1.45;1.20;;;16.30;99.90;;;;;;4986650;28;20034;-78
2021/08/29 04:59:30;;;;;;;1.20;0.90;;;16.30;99.90;;;;;;4988254;28;20050;-78
2021/08/29 05:01:55;;;;;;;1.20;1.00;;;16.30;99.90;;;;;;4985451;28;20123;-77
2021/08/29 05:04:21;;;;;;;5.28;1.50;;;16.30;99.90;;;;;;4990935;28;20416;-78
2021/08/29 05:06:46;;;;;;;1.15;0.98;;;16.30;99.90;;;;;;4991419;28;20018;-77
2021/08/29 05:09:12;;;;;;;1.33;1.23;;;16.30;99.90;;;;;;4979447;28;20031;-78
2021/08/29 05:11:37;;;;;;;3.35;1.23;;;16.30;99.90;;;;;;4986952;28;20481;-78
2021/08/29 05:14:02;;;;;;;1.23;1.13;;;16.30;99.90;;;;;;4984388;28;20397;-78
2021/08/29 05:16:28;;;;;;;2.40;1.38;;;16.40;99.90;;;;;;4989878;28;20031;-78
2021/08/29 05:18:54;;;;;;;2.15;1.60;;;16.40;99.90;;;;;;4990027;28;20049;-78
2021/08/29 05:21:19;;;;;;;1.70;1.45;;;16.40;99.90;;;;;;4990991;28;20022;-78
2021/08/29 05:23:44;;;;;;;2.30;1.65;;;16.40;99.90;;;;;;4990396;28;20022;-78
2021/08/29 05:26:10;;;;;;;1.83;1.48;;;16.40;99.90;;;;;;4990495;28;20034;-77
2021/08/29 05:28:35;;;;;;;8.15;2.10;;;16.40;99.90;;;;;;4988367;28;20029;-78
2021/08/29 05:31:01;;;;;;;4.72;2.42;;;16.40;99.90;;;;;;4991133;28;20030;-78
2021/08/29 05:33:26;;;;;;;3.45;2.25;;;16.40;99.90;;;;;;4991498;28;20030;-77
2021/08/29 05:35:52;;;;;;;2.97;2.17;;;16.40;99.90;;;;;;4989167;28;20520;-78
2021/08/29 05:38:18;;;;;;;3.58;2.30;;;16.40;99.90;;;;;;4989995;28;20118;-78
2021/08/29 05:40:43;;;;;;;3.38;2.45;;;16.40;99.90;;;;;;4985579;28;20026;-78
2021/08/29 05:43:08;;;;;;;3.03;2.40;;;16.30;99.90;;;;;;4989985;28;20058;-78
2021/08/29 05:45:34;;;;;;;4.40;2.67;;;16.40;99.90;;;;;;4989928;28;20022;-78
2021/08/29 05:47:59;;;;;;;3.40;2.28;;;16.40;99.90;;;;;;4983986;28;20046;-78
2021/08/29 05:50:25;;;;;;;4.47;2.90;;;16.40;99.90;;;;;;4987894;28;20046;-78
2021/08/29 05:52:50;;;;;;;6.50;2.38;;;16.40;99.90;;;;;;4990255;28;20157;-78
2021/08/29 05:55:16;;;;;;;3.13;2.25;;;16.40;99.90;;;;;;4988719;28;20030;-78
2021/08/29 05:57:41;;;;;;;3.08;2.40;;;16.40;99.90;;;;;;4988226;28;20034;-79
2021/08/29 06:00:07;;;;;;;3.20;2.40;;;16.40;99.90;;;;;;4989262;28;20109;-79
2021/08/29 06:02:33;;;;;;;2.65;2.08;;;16.40;99.90;;;;;;4988105;28;20033;-79
2021/08/29 06:05:00;;;;;;;3.20;2.40;;;16.50;99.90;;;;;;4987685;28;20052;-79
2021/08/29 06:07:25;;;;;;;3.58;2.83;;;16.50;99.90;;;;;;4989538;28;20413;-76
2021/08/29 06:09:51;;;;;;;4.10;2.47;;;16.50;99.90;;;;;;4989567;28;20026;-74
2021/08/29 06:12:16;;;;;;;3.33;2.35;;;16.50;99.90;;;;;;4988478;28;20027;-75
2021/08/29 06:14:42;;;;;;;5.38;2.67;;;16.50;99.90;;;;;;4987409;28;21574;-73
2021/08/29 06:17:07;;;;;;;3.30;2.22;;;16.50;99.90;;;;;;4988496;28;20035;-73
2021/08/29 06:19:33;;;;;;;4.30;2.45;;;16.50;99.90;;;;;;4973600;28;20055;-73
2021/08/29 06:21:58;;;;;;;3.33;2.28;;;16.40;99.90;;;;;;4985525;28;20386;-75
2021/08/29 06:24:24;;;;;;;6.85;2.40;;;16.50;99.90;;;;;;4988404;28;20042;-74
2021/08/29 06:26:49;;;;;;;3.03;2.40;;;16.50;99.90;;;;;;4988051;28;20369;-75
2021/08/29 06:29:17;;;;;;;3.05;2.35;;;16.40;99.90;;;;;;4984792;28;20114;-74
2021/08/29 06:31:43;;;;;;;3.42;2.47;;;16.40;99.90;;;;;;4989508;28;20025;-75
2021/08/29 06:34:10;;;;;;;3.30;2.22;;;16.40;99.90;;;;;;4988311;28;20034;-74
2021/08/29 06:36:36;;;;;;;4.10;2.75;;;16.40;99.90;;;;;;4986777;28;20018;-72
2021/08/29 06:39:02;;;;;;;3.58;2.38;;;16.40;99.90;;;;;;4988765;28;21156;-73
2021/08/29 06:41:27;;;;;;;6.22;2.97;;;16.50;99.90;;;;;;4984809;28;20050;-74
2021/08/29 06:43:53;;;;;;;3.08;2.28;;;16.50;99.90;;;;;;4991291;28;20022;-73
2021/08/29 06:46:20;;;;;;;4.05;2.70;;;16.50;99.90;;;;;;4988232;28;20029;-74
2021/08/29 06:48:45;;;;;;;3.40;2.42;;;16.50;99.90;;;;;;4985936;28;20027;-74
2021/08/29 06:51:11;;;;;;;2.15;1.90;;;16.50;99.90;;;;;;4980893;28;20178;-74
2021/08/29 06:53:36;;;;;;;4.38;1.85;;;16.50;99.90;;;;;;4987332;28;20465;-74
2021/08/29 06:56:02;;;;;;;5.80;1.77;;;16.50;99.90;;;;;;4984774;28;20251;-75
2021/08/29 06:58:27;;;;;;;3.33;2.22;;;16.50;99.90;;;;;;4982684;28;20038;-74
2021/08/29 07:00:53;;;;;;;7.50;2.20;;;16.40;99.90;;;;;;4983061;28;20053;-75
2021/08/29 07:03:18;;;;;;;2.28;1.83;;;16.40;99.90;;;;;;4987488;28;20026;-75
2021/08/29 07:05:44;;;;;;;3.53;2.38;;;16.40;99.90;;;;;;4986813;28;20390;-75
2021/08/29 07:08:09;;;;;;;2.53;1.92;;;16.40;99.90;;;;;;4976000;28;20474;-75
2021/08/29 07:10:35;;;;;;;3.35;1.95;;;16.40;99.90;;;;;;4993791;28;20039;-74
2021/08/29 07:13:01;;;;;;;3.15;1.70;;;16.40;99.90;;;;;;4998507;28;20049;-75
2021/08/29 07:15:26;;;;;;;3.22;2.10;;;16.50;99.90;;;;;;5000305;28;20038;-75
2021/08/29 07:17:52;;;;;;;3.88;1.90;;;16.50;99.90;;;;;;4998044;28;20026;-75
2021/08/29 07:20:18;;;;;;;2.53;1.85;;;16.50;99.90;;;;;;5003894;28;20034;-74
2021/08/29 07:22:43;;;;;;;2.63;1.92;;;16.50;99.90;;;;;;5000824;28;20504;-75
2021/08/29 07:25:09;;;;;;;2.95;2.22;;;16.50;99.90;;;;;;4997002;28;20056;-75
2021/08/29 07:27:34;;;;;;;6.18;2.20;;;16.50;99.90;;;;;;4996859;28;20074;-74
2021/08/29 07:30:00;;;;;;;2.70;1.90;;;16.50;99.90;;;;;;5000116;28;20224;-75
2021/08/29 07:32:26;;;;;;;3.20;2.25;;;16.50;99.90;;;;;;5002948;28;20099;-76
2021/08/29 07:34:51;;;;;;;4.63;2.20;;;16.50;99.90;;;;;;4996750;28;20120;-76
2021/08/29 07:37:17;;;;;;;3.70;2.15;;;16.50;99.90;;;;;;5003976;28;20095;-76
2021/08/29 07:39:43;;;;;;;4.75;2.25;;;16.50;99.90;;;;;;5003100;28;20025;-76
2021/08/29 07:42:09;;;;;;;3.53;2.40;;;16.50;99.90;;;;;;5003279;28;20435;-76
2021/08/29 07:44:34;;;;;;;6.90;2.22;;;16.50;99.90;;;;;;5003418;28;20025;-76
2021/08/29 07:47:00;;;;;;;4.28;2.38;;;16.50;99.90;;;;;;4999543;28;20034;-76
2021/08/29 07:49:25;;;;;;;3.50;2.75;;;16.60;99.90;;;;;;5003263;28;20021;-77
2021/08/29 07:51:51;;;;;;;4.47;2.25;;;16.60;99.90;;;;;;4994895;28;20034;-76
2021/08/29 07:54:16;;;;;;;6.15;2.67;;;16.60;99.90;;;;;;5000153;28;20123;-77
2021/08/29 07:56:41;;;;;;;2.88;2.20;;;16.60;99.90;;;;;;4993906;28;20029;-76
2021/08/29 07:59:07;;;;;;;5.25;2.38;;;16.60;99.90;;;;;;4998004;28;20053;-77
2021/08/29 08:01:32;;;;;;;7.05;2.80;;;16.60;99.90;;;;;;4999355;28;20033;-76
2021/08/29 08:03:58;;;;;;;3.28;2.13;;;16.60;99.90;;;;;;4990978;28;20109;-77
2021/08/29 08:06:23;;;;;;;3.22;1.98;;;16.60;99.90;;;;;;4998476;28;20006;-76
2021/08/29 08:08:49;;;;;;;3.58;2.50;;;16.60;99.90;;;;;;4995775;28;20511;-73
2021/08/29 08:11:14;;;;;;;3.53;2.50;;;16.60;99.90;;;;;;5004553;28;20029;-75
2021/08/29 08:13:40;;;;;;;4.57;2.85;;;16.60;99.90;;;;;;5009692;28;20476;-75
2021/08/29 08:16:05;;;;;;;3.05;2.25;;;16.60;99.90;;;;;;4998433;28;20534;-75
2021/08/29 08:18:33;;;;;;;4.32;2.63;;;16.60;99.90;;;;;;5005131;28;20030;-74
2021/08/29 08:20:59;;;;;;;3.70;2.45;;;16.60;99.90;;;;;;5004193;28;20041;-75
2021/08/29 08:23:25;;;;;;;4.13;2.45;;;16.60;99.90;;;;;;4985813;28;20026;-74
2021/08/29 08:25:50;;;;;;;3.35;2.45;;;16.60;99.90;;;;;;4988114;28;20480;-76
2021/08/29 08:28:16;;;;;;;6.35;2.83;;;16.70;99.90;;;;;;4995632;28;20065;-75
2021/08/29 08:30:41;;;;;;;4.15;2.60;;;16.70;99.90;;;;;;4984661;28;20384;-75
2021/08/29 08:33:07;;;;;;;4.13;2.60;;;16.70;99.90;;;;;;4986787;28;20065;-76
2021/08/29 08:35:32;;;;;;;4.65;2.58;;;16.70;99.90;;;;;;4987282;28;20026;-75
2021/08/29 08:37:58;;;;;;;4.38;2.17;;;16.70;99.90;;;;;;4985903;28;20089;-76
2021/08/29 08:40:23;;;;;;;4.35;2.63;;;16.70;99.90;;;;;;4985869;28;20309;-75
2021/08/29 08:42:50;;;;;;;4.20;2.70;;;16.80;99.90;;;;;;4987317;28;20412;-75
2021/08/29 08:45:18;;;;;;;4.10;2.13;;;16.90;99.90;;;;;;4984559;28;20018;-74
2021/08/29 08:47:44;;;;;;;5.10;2.42;;;16.90;99.90;;;;;;4992142;28;20087;-74
2021/08/29 08:50:12;;;;;;;5.32;2.28;;;17.00;99.90;;;;;;4981223;28;20084;-73
2021/08/29 08:52:39;;;;;;;4.72;2.38;;;17.10;99.90;;;;;;4984316;28;20030;-75
2021/08/29 08:55:06;;;;;;;3.00;2.45;;;17.30;99.90;;;;;;4982056;28;20041;-74
2021/08/29 08:57:32;;;;;;;2.85;2.10;;;17.40;99.90;;;;;;4994106;28;20129;-74
2021/08/29 08:59:57;;;;;;;3.28;2.20;;;17.50;99.90;;;;;;4982993;28;20137;-75
2021/08/29 09:02:24;;;;;;;3.05;1.85;;;17.50;99.90;;;;;;4989676;28;20601;-74
2021/08/29 09:04:50;;;;;;;2.25;1.58;;;17.60;99.90;;;;;;4989613;28;20042;-72
2021/08/29 09:07:16;;;;;;;2.60;1.80;;;17.60;99.90;;;;;;4982228;28;20031;-75
2021/08/29 09:09:41;;;;;;;2.65;1.88;;;17.70;99.90;;;;;;4986529;28;20030;-74
2021/08/29 09:12:07;;;;;;;2.40;1.55;;;17.80;99.90;;;;;;4989672;28;20053;-73
2021/08/29 09:14:42;;;;;;;4.97;1.70;;;17.90;99.90;;;;;;4982919;28;20046;-73
2021/08/29 09:17:31;;;;;;;2.28;1.45;;;18.00;99.90;;;;;;4990099;28;20381;-75
2021/08/29 09:20:21;;;;;;;2.17;1.65;;;18.10;99.90;;;;;;5001610;28;20029;-81
2021/08/29 09:22:49;;;;;;;1.35;1.20;;;18.10;99.90;;;;;;5002811;28;20109;-75
2021/08/29 09:25:17;;;;;;;1.48;1.17;;;18.10;99.90;;;;;;4994977;28;20041;-75
2021/08/29 09:27:50;;;;;;;2.00;1.10;;;18.20;99.90;;;;;;4999927;28;20050;-79
2021/08/29 09:30:17;;;;;;;0.90;0.77;;;18.30;99.90;;;;;;4999131;28;20365;-74
2021/08/29 09:32:51;;;;;;;1.60;1.17;;;18.40;99.90;;;;;;5003865;28;20057;-75
2021/08/29 09:35:18;;;;;;;1.48;1.00;;;18.50;99.90;;;;;;4997975;28;20034;-76
2021/08/29 09:37:44;;;;;;;1.20;1.10;;;18.60;99.90;;;;;;5003600;28;20374;-80
2021/08/29 09:40:20;;;;;;;1.67;1.20;;;18.70;99.90;;;;;;4999493;28;20037;-79
2021/08/29 09:42:48;;;;;;;1.10;0.90;;;18.70;99.90;;;;;;5002830;28;20025;-75
2021/08/29 09:45:34;;;;;;;1.13;0.98;;;18.80;99.90;;;;;;5002594;28;20034;-79
2021/08/29 09:48:04;;;;;;;1.15;1.00;;;18.70;99.90;;;;;;4992587;28;20405;-78
2021/08/29 09:50:32;;;;;;;1.10;0.98;;;18.70;99.90;;;;;;4996375;28;20029;-78
2021/08/29 09:53:13;;;;;;;1.27;0.90;;;18.70;99.90;;;;;;5005332;28;20042;-79
2021/08/29 09:55:40;;;;;;;;;;;18.80;99.90;;;;;;4991663;28;20022;-79
2021/08/29 09:58:32;;;;;;;1.85;0.80;;;18.80;99.90;;;;;;4994394;28;19925;-79
2021/08/29 10:01:09;;;;;;;0.60;0.60;;;18.80;99.90;;;;;;5001789;28;20121;-79
2021/08/29 10:03:47;;;;;;;0.80;0.80;;;18.80;99.90;;;;;;5003127;28;20025;-78
2021/08/29 10:06:22;;;;;;;0.30;0.30;;;18.80;99.90;;;;;;4999816;28;20779;-78
2021/08/29 10:08:50;;;;;;;0.57;0.57;;;18.90;99.90;;;;;;5002128;28;20106;-78
2021/08/29 10:11:18;;;;;;;0.45;0.45;;;19.10;99.90;;;;;;4995412;28;20034;-78
2021/08/29 10:13:44;;;;;;;5.90;0.50;;;19.20;99.90;;;;;;4994672;28;20030;-78
2021/08/29 10:16:10;;;;;;;0.38;0.38;;;19.30;99.90;;;;;;4996310;28;20134;-78
2021/08/29 10:19:02;;;;;;;0.60;0.60;;;19.30;99.90;;;;;;5003803;28;20548;-78
2021/08/29 10:21:27;;;;;;;0.60;0.60;;;19.20;99.90;;;;;;4996399;28;20038;-79
2021/08/29 10:23:57;;;;;;;0.73;0.70;;;19.30;99.90;;;;;;5001354;28;20054;-78
2021/08/29 10:26:25;;;;;;;0.98;0.80;;;19.30;99.90;;;;;;4991913;28;20447;-77
2021/08/29 10:29:06;;;;;;;0.85;0.70;;;19.30;99.90;;;;;;4993195;28;20053;-78
2021/08/29 10:31:35;;;;;;;0.85;0.60;;;19.30;99.90;;;;;;4997221;28;20042;-78
2021/08/29 10:34:02;;;;;;;0.50;0.50;;;19.40;99.90;;;;;;4998395;28;20045;-78
2021/08/29 10:36:28;;;;;;;0.95;0.70;;;19.60;99.90;;;;;;4991216;28;20525;-78
2021/08/29 10:38:54;;;;;;;0.60;0.60;;;19.60;99.90;;;;;;4995573;28;20030;-78
2021/08/29 10:41:22;;;;;;;2.13;0.60;;;19.50;99.90;;;;;;4998285;28;20026;-78
2021/08/29 10:43:49;;;;;;;0.55;0.55;;;19.30;99.90;;;;;;4998896;28;20038;-77
2021/08/29 10:46:15;;;;;;;1.85;0.70;;;19.20;99.90;;;;;;4989499;28;20393;-77
2021/08/29 10:48:45;;;;;;;0.85;0.63;;;19.10;99.90;;;;;;4994448;28;20043;-77
2021/08/29 10:51:13;;;;;;;0.60;0.60;;;19.00;99.90;;;;;;4997981;28;20770;-76
2021/08/29 10:53:48;;;;;;;0.95;0.50;;;19.00;99.90;;;;;;4998835;28;20488;-77
2021/08/29 10:56:16;;;;;;;0.43;0.43;;;19.20;99.90;;;;;;4994690;28;20052;-78
2021/08/29 10:58:43;;;;;;;0.32;0.32;;;19.60;99.90;;;;;;4984398;28;20131;-77
2021/08/29 11:01:38;;;;;;;0.50;0.50;;;20.00;99.90;;;;;;4996481;28;20477;-77
2021/08/29 11:04:19;;;;;;;0.55;0.55;;;20.40;99.90;;;;;;5000288;28;20034;-77
2021/08/29 11:06:47;;;;;;;0.70;0.45;;;20.80;99.90;;;;;;4999424;28;20413;-77
2021/08/29 11:09:37;;;;;;;0.50;0.50;;;;;;;;;;4999656;28;20092;-77
2021/08/29 11:12:15;;;;;;;0.68;0.60;;;21.20;99.90;;;;;;5003018;28;20161;-77
2021/08/29 11:14:48;;;;;;;0.28;0.28;;;22.20;99.90;;;;;;5000072;28;20504;-77
2021/08/29 11:17:24;;;;;;;1.38;0.60;;;22.60;98.90;;;;;;4994618;28;20045;-77
2021/08/29 11:19:53;;;;;;;0.50;0.50;;;23.00;98.40;;;;;;4999081;28;20493;-77
2021/08/29 11:22:26;;;;;;;0.40;0.40;;;23.00;97.20;;;;;;4999249;28;20041;-77
2021/08/29 11:25:13;;;;;;;0.85;0.60;;;22.70;97.70;;;;;;4993282;28;20086;-78
2021/08/29 11:27:47;;;;;;;1.00;0.70;;;22.30;99.00;;;;;;5002885;28;20400;-78
2021/08/29 11:30:22;;;;;;;0.40;0.40;;;21.90;99.40;;;;;;4999515;28;20040;-77
2021/08/29 11:32:58;;;;;;;0.65;0.50;;;21.60;99.90;;;;;;4995005;28;20029;-77
2021/08/29 11:35:43;;;;;;;0.50;0.50;;;21.40;99.90;;;;;;5003356;28;20036;-78
2021/08/29 11:38:19;;;;;;;1.33;0.50;;;21.10;99.90;;;;;;4998039;28;20026;-78
2021/08/29 11:40:55;;;;;;;0.50;0.50;;;21.00;99.90;;;;;;4999423;28;20041;-77
2021/08/29 11:43:28;;;;;;;0.40;0.40;;;21.10;99.90;;;;;;4994584;28;20030;-78
2021/08/29 11:46:09;;;;;;;0.50;0.50;;;21.20;99.90;;;;;;4998710;28;20044;-78
2021/08/29 11:48:37;;;;;;;1.55;0.50;;;21.60;99.10;;;;;;4998603;28;20038;-78
2021/08/29 11:51:04;;;;;;;0.63;0.40;;;22.20;98.00;;;;;;4987059;28;20034;-79
2021/08/29 11:53:49;;;;;;;0.60;0.60;;;22.50;95.50;;;;;;4985735;28;20057;-75
2021/08/29 11:56:18;;;;;;;0.30;0.30;;;22.80;93.10;;;;;;4987721;28;20037;-75
2021/08/29 11:58:48;;;;;;;0.50;0.40;;;23.20;88.50;;;;;;4986820;28;20064;-75
2021/08/29 12:01:42;;;;;;;1.17;0.50;;;23.20;90.30;;;;;;4987362;28;20595;-76
2021/08/29 12:04:08;;;;;;;2.58;0.70;;;23.20;90.60;;;;;;4981296;28;20046;-75
2021/08/29 12:06:46;;;;;;;0.68;0.50;;;23.00;90.90;;;;;;4986184;28;20038;-76
2021/08/29 12:09:22;;;;;;;0.80;0.55;;;22.70;90.30;;;;;;4983962;28;20034;-76
2021/08/29 12:11:50;;;;;;;0.55;0.28;;;22.50;90.40;;;;;;4985475;28;20026;-75
2021/08/29 12:14:21;;;;;;;0.50;0.50;;;22.40;93.10;;;;;;4986331;28;20039;-76
2021/08/29 12:16:52;;;;;;;0.60;0.50;;;22.20;92.80;;;;;;4984643;28;20034;-76
2021/08/29 12:19:21;;;;;;;1.17;0.57;;;22.00;92.80;;;;;;4985370;28;20141;-75
2021/08/29 12:21:48;;;;;;;0.43;0.43;;;21.70;92.30;;;;;;4987115;28;20033;-73
2021/08/29 12:24:21;;;;;;;0.52;0.50;;;21.40;96.50;;;;;;4986821;28;20109;-74
2021/08/29 12:27:00;;;;;;;0.52;0.50;;;21.10;98.50;;;;;;4988976;28;20033;-75
2021/08/29 12:29:26;;;;;;;0.80;0.57;;;20.70;99.90;;;;;;4987197;28;20455;-74
2021/08/29 12:31:52;;;;;;;0.52;0.40;;;20.50;99.90;;;;;;4986654;28;20109;-73
2021/08/29 12:34:25;;;;;;;0.40;0.40;;;20.30;99.90;;;;;;4985558;28;20156;-73
2021/08/29 12:37:05;;;;;;;0.50;0.50;;;20.10;99.90;;;;;;4987848;28;20109;-73
2021/08/29 12:39:30;;;;;;;0.50;0.50;;;20.00;99.90;;;;;;4986767;28;20042;-74
2021/08/29 12:42:21;;;;;;;0.65;0.65;;;20.00;99.90;;;;;;4982844;28;20038;-71
2021/08/29 12:44:48;;;;;;;0.47;0.47;;;20.00;99.90;;;;;;4984762;28;20584;-74
2021/08/29 12:47:14;;;;;;;0.52;0.52;;;20.10;99.90;;;;;;4986188;28;20037;-73
2021/08/29 12:49:41;;;;;;;0.80;0.70;;;20.10;99.90;;;;;;4985300;28;20027;-72
2021/08/29 12:52:11;;;;;;;1.83;1.70;;;20.20;99.90;;;;;;4987282;28;20027;-72
2021/08/29 12:54:37;;;;;;;0.52;0.52;;;20.30;99.90;;;;;;4987663;28;20019;-73